SWR6AC EDDM-LSZH
Flight info
| Callsign | SWR6AC |
|---|---|
| Flight time | 0h 27m |
| Altitude | 26000 |
| Route | MERSI4E/08R MERSI Y100 MOMUK Y112 RAVED L856 NEGRA |
| Aircraft | A20N/M-SDE2E3FGHIRWXY/LB1 |
Departure
| Time | 2026-05-04 17:57 |
|---|---|
| Airport | Munich Airport (EDDM) |
Arrival
| Time | 2026-05-04 18:24 |
|---|---|
| Airport | Zürich Airport (LSZH) |
| Time | Latitude | Longitude | Altitude | Speed | Heading |
|---|---|---|---|---|---|
| 2026-05-04 17:29 | 48.35159 | 11.79345 | 1478 ft | 0 kts | 265° |
| 2026-05-04 17:49 | 48.35159 | 11.79346 | 1478 ft | 2 kts | 265° |
| 2026-05-04 17:49 | 48.35159 | 11.79361 | 1478 ft | 0 kts | 265° |
| 2026-05-04 17:50 | 48.35161 | 11.79375 | 1468 ft | 4 kts | 245° |
| 2026-05-04 17:50 | 48.35184 | 11.79410 | 1474 ft | 0 kts | 198° |
| 2026-05-04 17:52 | 48.35183 | 11.79410 | 1473 ft | 1 kts | 198° |
| 2026-05-04 17:52 | 48.35155 | 11.79419 | 1474 ft | 10 kts | 160° |
| 2026-05-04 17:53 | 48.35058 | 11.79511 | 1466 ft | 21 kts | 154° |
| 2026-05-04 17:53 | 48.34935 | 11.79548 | 1479 ft | 0 kts | 174° |
| 2026-05-04 17:53 | 48.34932 | 11.79549 | 1480 ft | 0 kts | 174° |
| 2026-05-04 17:53 | 48.34931 | 11.79549 | 1468 ft | 1 kts | 174° |
| 2026-05-04 17:54 | 48.34877 | 11.79558 | 1476 ft | 13 kts | 174° |
| 2026-05-04 17:54 | 48.34801 | 11.79628 | 1468 ft | 15 kts | 103° |
| 2026-05-04 17:54 | 48.34809 | 11.79800 | 1480 ft | 18 kts | 78° |
| 2026-05-04 17:54 | 48.34828 | 11.80007 | 1474 ft | 21 kts | 85° |
| 2026-05-04 17:55 | 48.34783 | 11.80216 | 1468 ft | 23 kts | 145° |
| 2026-05-04 17:55 | 48.34630 | 11.80262 | 1469 ft | 17 kts | 174° |
| 2026-05-04 17:55 | 48.34597 | 11.80267 | 1478 ft | 0 kts | 173° |
| 2026-05-04 17:56 | 48.34513 | 11.80277 | 1470 ft | 31 kts | 185° |
| 2026-05-04 17:56 | 48.34445 | 11.79996 | 1482 ft | 58 kts | 263° |
| 2026-05-04 17:56 | 48.34371 | 11.79023 | 1482 ft | 127 kts | 264° |
| 2026-05-04 17:56 | 48.34248 | 11.77461 | 1599 ft | 167 kts | 263° |
| 2026-05-04 17:57 | 48.34089 | 11.75806 | 2503 ft | 153 kts | 262° |
| 2026-05-04 17:57 | 48.33911 | 11.74278 | 3293 ft | 144 kts | 259° |
| 2026-05-04 17:57 | 48.33716 | 11.72833 | 3925 ft | 144 kts | 260° |
| 2026-05-04 17:57 | 48.33619 | 11.71252 | 4242 ft | 160 kts | 268° |
| 2026-05-04 17:58 | 48.33583 | 11.69501 | 4593 ft | 179 kts | 268° |
| 2026-05-04 17:58 | 48.33499 | 11.67518 | 5021 ft | 199 kts | 264° |
| 2026-05-04 17:58 | 48.33350 | 11.65355 | 5541 ft | 219 kts | 262° |
| 2026-05-04 17:58 | 48.33164 | 11.62969 | 6105 ft | 240 kts | 263° |
| 2026-05-04 17:59 | 48.32976 | 11.60356 | 6691 ft | 261 kts | 263° |
| 2026-05-04 17:59 | 48.32778 | 11.57561 | 6904 ft | 276 kts | 263° |
| 2026-05-04 17:59 | 48.32365 | 11.51832 | 6940 ft | 276 kts | 262° |
| 2026-05-04 18:00 | 48.32153 | 11.48942 | 6954 ft | 277 kts | 262° |
| 2026-05-04 18:00 | 48.31941 | 11.46090 | 7226 ft | 279 kts | 262° |
| 2026-05-04 18:00 | 48.31725 | 11.43184 | 8103 ft | 277 kts | 262° |
| 2026-05-04 18:00 | 48.31519 | 11.40370 | 9445 ft | 271 kts | 261° |
| 2026-05-04 18:01 | 48.31311 | 11.37553 | 10509 ft | 274 kts | 260° |
| 2026-05-04 18:01 | 48.31091 | 11.34660 | 11434 ft | 281 kts | 260° |
| 2026-05-04 18:01 | 48.30776 | 11.31765 | 12355 ft | 283 kts | 249° |
| 2026-05-04 18:02 | 48.28272 | 11.27384 | 14154 ft | 287 kts | 205° |
| 2026-05-04 18:02 | 48.26391 | 11.26170 | 14745 ft | 303 kts | 203° |
| 2026-05-04 18:02 | 48.24363 | 11.24895 | 15011 ft | 327 kts | 203° |
| 2026-05-04 18:02 | 48.22219 | 11.23541 | 15413 ft | 343 kts | 203° |
| 2026-05-04 18:03 | 48.20017 | 11.22144 | 16199 ft | 348 kts | 204° |
| 2026-05-04 18:03 | 48.17766 | 11.20712 | 16992 ft | 352 kts | 204° |
| 2026-05-04 18:03 | 48.15515 | 11.19277 | 17752 ft | 357 kts | 204° |
| 2026-05-04 18:03 | 48.13326 | 11.17468 | 18469 ft | 361 kts | 218° |
| 2026-05-04 18:04 | 48.11594 | 11.14756 | 18809 ft | 363 kts | 235° |
| 2026-05-04 18:04 | 48.10449 | 11.11344 | 19075 ft | 369 kts | 248° |
| 2026-05-04 18:04 | 48.08745 | 11.04060 | 20195 ft | 374 kts | 250° |
| 2026-05-04 18:05 | 48.07884 | 11.00400 | 20908 ft | 376 kts | 249° |
| 2026-05-04 18:05 | 48.06989 | 10.96743 | 21575 ft | 380 kts | 248° |
| 2026-05-04 18:05 | 48.06050 | 10.93008 | 22222 ft | 385 kts | 248° |
| 2026-05-04 18:05 | 48.05089 | 10.89235 | 22867 ft | 389 kts | 248° |
| 2026-05-04 18:06 | 48.03145 | 10.81666 | 23939 ft | 385 kts | 248° |
| 2026-05-04 18:06 | 48.02180 | 10.77917 | 23925 ft | 386 kts | 248° |
| 2026-05-04 18:06 | 48.01204 | 10.74133 | 24074 ft | 397 kts | 248° |
| 2026-05-04 18:07 | 48.00203 | 10.70256 | 24663 ft | 399 kts | 248° |
| 2026-05-04 18:07 | 47.99879 | 10.69002 | 24864 ft | 399 kts | 248° |
| 2026-05-04 18:07 | 47.98883 | 10.65152 | 25424 ft | 402 kts | 248° |
| 2026-05-04 18:07 | 47.97868 | 10.61233 | 25822 ft | 406 kts | 248° |
| 2026-05-04 18:08 | 47.96842 | 10.57279 | 25950 ft | 406 kts | 248° |
| 2026-05-04 18:08 | 47.95829 | 10.53381 | 25969 ft | 406 kts | 248° |
| 2026-05-04 18:08 | 47.94807 | 10.49454 | 25971 ft | 406 kts | 248° |
| 2026-05-04 18:08 | 47.93792 | 10.45562 | 25967 ft | 405 kts | 248° |
| 2026-05-04 18:09 | 47.91746 | 10.37737 | 25966 ft | 404 kts | 248° |
| 2026-05-04 18:09 | 47.89699 | 10.29935 | 25637 ft | 403 kts | 247° |
| 2026-05-04 18:10 | 47.88684 | 10.26077 | 25405 ft | 401 kts | 247° |
| 2026-05-04 18:10 | 47.87657 | 10.22179 | 25093 ft | 400 kts | 247° |
| 2026-05-04 18:10 | 47.86653 | 10.18373 | 24616 ft | 399 kts | 247° |
| 2026-05-04 18:10 | 47.85634 | 10.14519 | 24125 ft | 394 kts | 247° |
| 2026-05-04 18:11 | 47.84634 | 10.10741 | 23638 ft | 389 kts | 247° |
| 2026-05-04 18:11 | 47.83654 | 10.07047 | 23098 ft | 387 kts | 247° |
| 2026-05-04 18:11 | 47.82660 | 10.03308 | 22526 ft | 385 kts | 247° |
| 2026-05-04 18:11 | 47.81687 | 9.99646 | 21977 ft | 380 kts | 247° |
| 2026-05-04 18:12 | 47.80716 | 9.96004 | 21435 ft | 376 kts | 247° |
| 2026-05-04 18:12 | 47.79758 | 9.92415 | 20916 ft | 375 kts | 247° |
| 2026-05-04 18:12 | 47.78792 | 9.88802 | 20384 ft | 371 kts | 247° |
| 2026-05-04 18:12 | 47.77842 | 9.85251 | 20071 ft | 366 kts | 247° |
| 2026-05-04 18:13 | 47.76907 | 9.81767 | 19983 ft | 369 kts | 247° |
| 2026-05-04 18:13 | 47.75951 | 9.78207 | 19968 ft | 370 kts | 247° |
| 2026-05-04 18:13 | 47.74036 | 9.71094 | 19110 ft | 372 kts | 247° |
| 2026-05-04 18:14 | 47.73244 | 9.67388 | 18184 ft | 382 kts | 255° |
| 2026-05-04 18:14 | 47.72826 | 9.63513 | 17344 ft | 384 kts | 263° |
| 2026-05-04 18:14 | 47.72705 | 9.59525 | 16649 ft | 381 kts | 265° |
| 2026-05-04 18:15 | 47.72498 | 9.51750 | 15245 ft | 375 kts | 265° |
| 2026-05-04 18:15 | 47.72020 | 9.44135 | 14146 ft | 359 kts | 251° |
| 2026-05-04 18:15 | 47.71048 | 9.40876 | 14010 ft | 340 kts | 236° |
| 2026-05-04 18:16 | 47.69628 | 9.38138 | 13969 ft | 337 kts | 229° |
| 2026-05-04 18:16 | 47.68103 | 9.35442 | 13965 ft | 340 kts | 229° |
| 2026-05-04 18:16 | 47.66589 | 9.32753 | 13968 ft | 339 kts | 229° |
| 2026-05-04 18:17 | 47.63567 | 9.27395 | 13972 ft | 340 kts | 229° |
| 2026-05-04 18:17 | 47.62045 | 9.24706 | 13961 ft | 339 kts | 229° |
| 2026-05-04 18:17 | 47.59006 | 9.19348 | 12905 ft | 344 kts | 229° |
| 2026-05-04 18:18 | 47.57442 | 9.16594 | 11978 ft | 351 kts | 229° |
| 2026-05-04 18:18 | 47.55866 | 9.13821 | 11300 ft | 350 kts | 229° |
| 2026-05-04 18:18 | 47.54306 | 9.11079 | 10691 ft | 346 kts | 228° |
| 2026-05-04 18:18 | 47.52754 | 9.08352 | 10259 ft | 339 kts | 228° |
| 2026-05-04 18:19 | 47.49866 | 9.03286 | 9977 ft | 308 kts | 227° |
| 2026-05-04 18:19 | 47.48513 | 9.00917 | 9688 ft | 299 kts | 227° |
| 2026-05-04 18:19 | 47.47139 | 8.98522 | 8785 ft | 309 kts | 228° |
| 2026-05-04 18:20 | 47.45725 | 8.96061 | 7796 ft | 322 kts | 228° |
| 2026-05-04 18:20 | 47.44285 | 8.93433 | 6732 ft | 337 kts | 236° |
| 2026-05-04 18:20 | 47.43456 | 8.90183 | 6161 ft | 335 kts | 261° |
| 2026-05-04 18:20 | 47.43492 | 8.86894 | 5929 ft | 314 kts | 275° |
| 2026-05-04 18:21 | 47.43726 | 8.83734 | 5399 ft | 303 kts | 275° |
| 2026-05-04 18:21 | 47.43950 | 8.80693 | 4771 ft | 298 kts | 276° |
| 2026-05-04 18:21 | 47.44169 | 8.77679 | 4283 ft | 287 kts | 276° |
| 2026-05-04 18:21 | 47.44377 | 8.74842 | 4095 ft | 266 kts | 276° |
| 2026-05-04 18:22 | 47.44562 | 8.72306 | 4047 ft | 232 kts | 276° |
| 2026-05-04 18:22 | 47.44738 | 8.69877 | 4044 ft | 246 kts | 276° |
| 2026-05-04 18:22 | 47.44916 | 8.67461 | 3921 ft | 227 kts | 276° |
| 2026-05-04 18:22 | 47.45063 | 8.65185 | 3205 ft | 217 kts | 275° |
| 2026-05-04 18:23 | 47.45161 | 8.63745 | 2766 ft | 210 kts | 276° |
| 2026-05-04 18:23 | 47.45297 | 8.61670 | 2234 ft | 192 kts | 276° |
| 2026-05-04 18:23 | 47.45461 | 8.59789 | 1883 ft | 171 kts | 277° |
| 2026-05-04 18:23 | 47.45589 | 8.58162 | 1630 ft | 148 kts | 274° |
| 2026-05-04 18:24 | 47.45686 | 8.56748 | 1436 ft | 132 kts | 274° |
| 2026-05-04 18:24 | 47.45758 | 8.55615 | 1396 ft | 59 kts | 274° |
| 2026-05-04 18:24 | 47.45778 | 8.55273 | 1403 ft | 18 kts | 277° |
| 2026-05-04 18:24 | 47.45729 | 8.55156 | 1398 ft | 14 kts | 154° |
| 2026-05-04 18:25 | 47.45644 | 8.55229 | 1396 ft | 15 kts | 153° |
| 2026-05-04 18:25 | 47.45551 | 8.55318 | 1397 ft | 16 kts | 110° |
| 2026-05-04 18:25 | 47.45522 | 8.55501 | 1398 ft | 20 kts | 93° |
| 2026-05-04 18:25 | 47.45513 | 8.55722 | 1396 ft | 19 kts | 97° |
| 2026-05-04 18:26 | 47.45512 | 8.55739 | 1396 ft | 0 kts | 97° |
| 2026-05-04 18:26 | 47.45509 | 8.55766 | 1399 ft | 8 kts | 97° |
| 2026-05-04 18:26 | 47.45497 | 8.55910 | 1396 ft | 18 kts | 97° |
| 2026-05-04 18:26 | 47.45465 | 8.56003 | 1398 ft | 8 kts | 159° |
| 2026-05-04 18:27 | 47.45416 | 8.56004 | 1401 ft | 0 kts | 187° |